Time;durP1;ratioP1;P1;durP2;ratioP2;P2;SDS_P1;SDS_P2;PMS_P1;PMS_P2;Temp;Humidity;BMP_temperature;BMP_pressure;BME280_temperature;BME280_humidity;BME280_pressure;Samples;Min_cycle;Max_cycle;Signal;HPM_P1;HPM_P2
2022/05/04 00:01:20;;;;;;;0.40;0.40;;;15.40;99.90;;;;;;4993575;28;20474;-64
2022/05/04 00:03:46;;;;;;;1.75;1.08;;;15.50;99.90;;;;;;4993693;28;20106;-64
2022/05/04 00:06:12;;;;;;;0.10;0.10;;;15.40;99.90;;;;;;4993520;28;20022;-64
2022/05/04 00:08:38;;;;;;;2.60;1.95;;;15.30;99.90;;;;;;4992488;28;20034;-64
2022/05/04 00:11:05;;;;;;;1.00;0.63;;;15.10;99.90;;;;;;4993752;28;20642;-64
2022/05/04 00:13:31;;;;;;;0.25;0.25;;;15.20;99.90;;;;;;4993475;28;20027;-64
2022/05/04 00:16:01;;;;;;;0.52;0.52;;;15.20;99.90;;;;;;4993547;28;20117;-64
2022/05/04 00:18:28;;;;;;;4.30;2.42;;;15.20;99.90;;;;;;4991722;28;20075;-63
2022/05/04 00:20:54;;;;;;;0.30;0.30;;;15.10;99.90;;;;;;4993303;28;20109;-63
2022/05/04 00:23:24;;;;;;;0.63;0.63;;;15.00;99.90;;;;;;4993433;28;20038;-63
2022/05/04 00:25:50;;;;;;;0.50;0.50;;;15.10;99.90;;;;;;4992036;28;20030;-64
2022/05/04 00:28:15;;;;;;;0.32;0.30;;;15.10;99.90;;;;;;4993141;28;20433;-63
2022/05/04 00:30:41;;;;;;;2.30;1.08;;;15.30;99.90;;;;;;4993052;28;20030;-63
2022/05/04 00:33:07;;;;;;;0.63;0.63;;;15.30;99.90;;;;;;4975958;28;20061;-63
2022/05/04 00:35:34;;;;;;;0.85;0.47;;;15.30;99.90;;;;;;4992019;28;20061;-63
2022/05/04 00:38:00;;;;;;;0.13;0.13;;;15.20;99.90;;;;;;4993258;28;20038;-63
2022/05/04 00:40:26;;;;;;;0.43;0.43;;;15.20;99.90;;;;;;4991791;28;20112;-63
2022/05/04 00:42:52;;;;;;;0.55;0.55;;;15.20;99.90;;;;;;4993269;28;20041;-63
2022/05/04 00:45:18;;;;;;;2.13;0.85;;;15.10;99.90;;;;;;4992977;28;20035;-63
2022/05/04 00:47:44;;;;;;;0.60;0.60;;;15.20;99.90;;;;;;4992681;28;20026;-63
2022/05/04 00:50:10;;;;;;;0.22;0.22;;;15.10;99.90;;;;;;4992875;28;20121;-63
2022/05/04 00:52:41;;;;;;;0.47;0.47;;;15.00;99.90;;;;;;4992865;28;20030;-62
2022/05/04 00:55:08;;;;;;;1.00;0.30;;;15.00;99.90;;;;;;4991961;28;20485;-62
2022/05/04 01:00:24;;;;;;;0.00;0.00;;;15.00;99.90;;;;;;4991805;28;20036;-64
2022/05/04 01:02:50;;;;;;;0.20;0.20;;;15.00;99.90;;;;;;4991284;28;20502;-64
2022/05/04 01:05:16;;;;;;;0.20;0.20;;;14.90;99.90;;;;;;4991831;28;20026;-63
2022/05/04 01:07:44;;;;;;;2.17;0.45;;;14.70;99.90;;;;;;4996232;28;20068;-63
2022/05/04 01:10:12;;;;;;;0.65;0.65;;;14.70;99.90;;;;;;4983620;28;20716;-64
2022/05/04 01:12:52;;;;;;;2.03;1.00;;;14.60;99.90;;;;;;5010155;28;20030;-63
2022/05/04 01:15:21;;;;;;;0.52;0.52;;;14.50;99.90;;;;;;5007206;28;20022;-63
2022/05/04 01:17:50;;;;;;;0.30;0.30;;;14.50;99.90;;;;;;4991223;28;20448;-63
2022/05/04 01:20:17;;;;;;;0.28;0.28;;;14.50;99.90;;;;;;4990930;28;20618;-64
2022/05/04 01:22:43;;;;;;;0.65;0.65;;;14.50;99.90;;;;;;4992088;28;20475;-64
2022/05/04 01:25:11;;;;;;;0.20;0.20;;;14.40;99.90;;;;;;5006631;28;20457;-63
2022/05/04 01:27:37;;;;;;;0.25;0.25;;;14.30;99.90;;;;;;4994310;28;20109;-63
2022/05/04 01:30:04;;;;;;;0.00;0.00;;;14.30;99.90;;;;;;5011682;28;20105;-63
2022/05/04 01:32:31;;;;;;;0.20;0.20;;;14.30;99.90;;;;;;4994290;28;20026;-63
2022/05/04 01:34:57;;;;;;;0.45;0.45;;;14.30;99.90;;;;;;5011538;28;20057;-64
2022/05/04 01:37:23;;;;;;;0.20;0.20;;;14.50;99.90;;;;;;4993650;28;20049;-63
2022/05/04 01:39:48;;;;;;;4.85;1.08;;;14.50;99.90;;;;;;5010876;28;20474;-63
2022/05/04 01:42:16;;;;;;;1.20;0.98;;;14.50;99.90;;;;;;4995684;28;20033;-63
2022/05/04 01:44:44;;;;;;;0.30;0.30;;;14.50;99.90;;;;;;4992008;28;20096;-64
2022/05/04 01:47:11;;;;;;;0.20;0.20;;;14.40;99.90;;;;;;4991747;28;20462;-63
2022/05/04 01:49:39;;;;;;;0.70;0.60;;;14.30;99.90;;;;;;4990399;28;20108;-63
2022/05/04 01:52:06;;;;;;;0.75;0.60;;;14.30;99.90;;;;;;4990287;28;20399;-63
2022/05/04 01:54:31;;;;;;;0.05;0.05;;;14.30;99.90;;;;;;4990367;28;20038;-64
2022/05/04 01:56:57;;;;;;;0.52;0.52;;;14.30;99.90;;;;;;4990245;28;20030;-64
2022/05/04 01:59:23;;;;;;;0.30;0.30;;;14.30;99.90;;;;;;4991123;28;20037;-63
2022/05/04 02:01:49;;;;;;;0.08;0.08;;;14.30;99.90;;;;;;4991552;28;20029;-62
2022/05/04 02:04:15;;;;;;;3.53;0.95;;;14.30;99.90;;;;;;4990331;28;20391;-63
2022/05/04 02:06:42;;;;;;;1.27;0.57;;;14.20;99.90;;;;;;4990159;28;20026;-63
2022/05/04 02:09:08;;;;;;;4.13;1.65;;;14.20;99.90;;;;;;4989988;28;20033;-63
2022/05/04 02:11:35;;;;;;;0.90;0.85;;;14.10;99.90;;;;;;4990566;28;20061;-63
2022/05/04 02:14:02;;;;;;;1.33;0.60;;;14.00;99.90;;;;;;4990341;28;20044;-63
2022/05/04 02:16:29;;;;;;;6.60;2.85;;;14.00;99.90;;;;;;5007634;28;20482;-63
2022/05/04 02:18:56;;;;;;;1.10;1.05;;;14.10;99.90;;;;;;4992734;28;20132;-63
2022/05/04 02:21:22;;;;;;;0.85;0.80;;;14.10;99.90;;;;;;5010792;28;20437;-63
2022/05/04 02:23:48;;;;;;;0.38;0.38;;;14.10;99.90;;;;;;4993255;28;20026;-64
2022/05/04 02:26:13;;;;;;;0.20;0.20;;;14.10;99.90;;;;;;4993248;28;20165;-64
2022/05/04 02:28:39;;;;;;;0.85;0.85;;;14.10;99.90;;;;;;4992745;28;20062;-63
2022/05/04 02:31:05;;;;;;;2.13;0.88;;;14.10;99.90;;;;;;5011087;28;20132;-64
2022/05/04 02:33:32;;;;;;;0.20;0.20;;;14.10;99.90;;;;;;4993294;28;20512;-63
2022/05/04 02:38:41;;;;;;;0.90;0.90;;;14.00;99.90;;;;;;5010246;28;20099;-63
2022/05/04 02:41:08;;;;;;;0.60;0.60;;;13.80;99.90;;;;;;5010557;28;20567;-63
2022/05/04 02:43:33;;;;;;;0.40;0.40;;;13.80;99.90;;;;;;5010473;28;20088;-62
2022/05/04 02:46:16;;;;;;;0.20;0.20;;;13.90;99.90;;;;;;5010292;28;20026;-63
2022/05/04 02:48:42;;;;;;;0.60;0.60;;;13.90;99.90;;;;;;5010096;28;20033;-63
2022/05/04 02:51:08;;;;;;;0.82;0.80;;;14.00;99.90;;;;;;5010824;28;20045;-62
2022/05/04 02:53:34;;;;;;;0.82;0.75;;;13.80;99.90;;;;;;4993113;28;20026;-63
2022/05/04 02:56:01;;;;;;;0.57;0.55;;;13.80;99.90;;;;;;4993064;28;20167;-63
2022/05/04 02:58:27;;;;;;;3.63;1.75;;;13.90;99.90;;;;;;5009923;28;20656;-64
2022/05/04 03:00:53;;;;;;;2.13;1.10;;;13.80;99.90;;;;;;4992904;28;20026;-63
2022/05/04 03:03:18;;;;;;;0.35;0.35;;;13.60;99.90;;;;;;4992941;28;20029;-62
2022/05/04 03:05:44;;;;;;;0.25;0.25;;;13.50;99.90;;;;;;4992784;28;20060;-62
2022/05/04 03:08:10;;;;;;;0.20;0.20;;;13.40;99.90;;;;;;4992771;28;20034;-63
2022/05/04 03:13:20;;;;;;;0.65;0.65;;;13.30;99.90;;;;;;4995386;28;20041;-63
2022/05/04 03:15:46;;;;;;;1.48;1.05;;;13.40;99.90;;;;;;4999496;28;20386;-63
2022/05/04 03:18:11;;;;;;;0.25;0.25;;;13.30;99.90;;;;;;4999921;28;20077;-63
2022/05/04 03:20:37;;;;;;;0.82;0.52;;;13.40;99.90;;;;;;4981545;28;20426;-63
2022/05/04 03:23:03;;;;;;;0.55;0.55;;;13.50;99.90;;;;;;4962884;28;20030;-63
2022/05/04 03:25:28;;;;;;;0.80;0.45;;;13.50;99.90;;;;;;4978886;28;20026;-63
2022/05/04 03:27:54;;;;;;;0.32;0.32;;;13.50;99.90;;;;;;4980738;28;20598;-63
2022/05/04 03:30:20;;;;;;;0.32;0.32;;;13.50;99.90;;;;;;4996128;28;20061;-63
2022/05/04 03:32:46;;;;;;;0.68;0.68;;;13.40;99.90;;;;;;5004387;28;20390;-63
2022/05/04 03:35:11;;;;;;;0.28;0.28;;;13.30;99.90;;;;;;4980633;28;20066;-64
2022/05/04 03:37:37;;;;;;;2.35;1.25;;;13.20;99.90;;;;;;4999901;28;20030;-65
2022/05/04 03:40:03;;;;;;;0.88;0.80;;;13.10;99.90;;;;;;5002062;28;20030;-64
2022/05/04 03:42:29;;;;;;;0.65;0.65;;;13.10;99.90;;;;;;5002057;28;20018;-64
2022/05/04 03:44:56;;;;;;;0.00;0.00;;;13.10;99.90;;;;;;4986340;28;20445;-64
2022/05/04 03:47:21;;;;;;;0.55;0.52;;;13.10;99.90;;;;;;4979517;28;20045;-64
2022/05/04 03:49:47;;;;;;;1.10;0.50;;;13.20;99.90;;;;;;5010978;28;20037;-64
2022/05/04 03:52:13;;;;;;;0.68;0.68;;;13.20;99.90;;;;;;4993902;28;20022;-67
2022/05/04 03:54:39;;;;;;;0.32;0.32;;;13.30;99.90;;;;;;4992063;28;20092;-64
2022/05/04 03:57:05;;;;;;;0.20;0.20;;;13.30;99.90;;;;;;4992336;28;20101;-61
2022/05/04 03:59:31;;;;;;;0.10;0.10;;;13.40;99.90;;;;;;4995568;28;20038;-63
2022/05/04 04:01:57;;;;;;;0.73;0.30;;;13.40;99.90;;;;;;5001948;28;20073;-63
2022/05/04 04:04:23;;;;;;;0.52;0.52;;;13.50;99.90;;;;;;5009738;28;20046;-65
2022/05/04 04:06:49;;;;;;;0.03;0.03;;;13.50;99.90;;;;;;5013165;28;20060;-63
2022/05/04 04:09:16;;;;;;;0.05;0.05;;;13.50;99.90;;;;;;4994776;28;20033;-64
2022/05/04 04:11:42;;;;;;;0.25;0.25;;;13.50;99.90;;;;;;5013072;28;20040;-64
2022/05/04 04:14:10;;;;;;;0.98;0.17;;;13.50;99.90;;;;;;5012828;28;20029;-64
2022/05/04 04:16:36;;;;;;;2.28;1.30;;;13.50;99.90;;;;;;4995038;28;20027;-63
2022/05/04 04:19:02;;;;;;;1.88;1.30;;;13.50;99.90;;;;;;4991392;28;20038;-64
2022/05/04 04:24:12;;;;;;;1.00;0.98;;;13.50;99.90;;;;;;5012636;28;20107;-63
2022/05/04 04:26:41;;;;;;;0.47;0.47;;;13.50;99.90;;;;;;5012539;28;20030;-62
2022/05/04 04:29:07;;;;;;;0.90;0.90;;;13.40;99.90;;;;;;5000466;28;20058;-62
2022/05/04 04:31:33;;;;;;;0.22;0.22;;;13.50;99.90;;;;;;4993158;28;20034;-62
2022/05/04 04:34:01;;;;;;;0.55;0.55;;;13.40;99.90;;;;;;4993021;28;20030;-62
2022/05/04 04:36:27;;;;;;;0.40;0.40;;;13.40;99.90;;;;;;4963911;28;20121;-63
2022/05/04 04:38:52;;;;;;;0.85;0.70;;;13.40;99.90;;;;;;4996123;28;20129;-62
2022/05/04 04:41:19;;;;;;;7.25;1.90;;;13.30;99.90;;;;;;5012295;28;20033;-62
2022/05/04 04:43:44;;;;;;;0.00;0.00;;;13.30;99.90;;;;;;5012391;28;20457;-62
2022/05/04 04:46:10;;;;;;;0.15;0.15;;;13.30;99.90;;;;;;4994509;28;20079;-62
2022/05/04 04:48:36;;;;;;;0.45;0.45;;;13.30;99.90;;;;;;4993969;28;20033;-62
2022/05/04 04:51:01;;;;;;;2.47;1.30;;;13.30;99.90;;;;;;5011792;28;20037;-63
2022/05/04 04:53:28;;;;;;;0.50;0.50;;;13.30;99.90;;;;;;5012278;28;20719;-63
2022/05/04 04:55:54;;;;;;;0.20;0.13;;;13.30;99.90;;;;;;4994505;28;20034;-63
2022/05/04 04:58:19;;;;;;;0.30;0.30;;;13.20;99.90;;;;;;5006618;28;20036;-63
2022/05/04 05:00:45;;;;;;;1.77;0.52;;;13.20;99.90;;;;;;4958630;28;20030;-63
2022/05/04 05:03:11;;;;;;;0.45;0.45;;;13.30;99.90;;;;;;4992500;28;20106;-63
2022/05/04 05:05:41;;;;;;;0.52;0.30;;;13.20;99.90;;;;;;4992463;28;20470;-63
2022/05/04 05:08:08;;;;;;;1.33;1.23;;;13.20;99.90;;;;;;4974989;28;20485;-63
2022/05/04 05:10:34;;;;;;;0.20;0.20;;;13.20;99.90;;;;;;4992235;28;20032;-63
2022/05/04 05:13:00;;;;;;;0.20;0.20;;;13.10;99.90;;;;;;4992137;28;20038;-63
2022/05/04 05:18:13;;;;;;;0.65;0.65;;;13.20;99.90;;;;;;5010974;28;20037;-64
2022/05/04 05:20:39;;;;;;;0.10;0.10;;;13.30;99.90;;;;;;4993464;28;20390;-63
2022/05/04 05:23:05;;;;;;;0.00;0.00;;;13.30;99.90;;;;;;5011497;28;20022;-63
2022/05/04 05:25:32;;;;;;;0.20;0.20;;;13.40;99.90;;;;;;5011549;28;20037;-63
2022/05/04 05:27:58;;;;;;;0.15;0.15;;;13.50;99.90;;;;;;5008816;28;20036;-61
2022/05/04 05:30:25;;;;;;;0.20;0.20;;;13.60;99.90;;;;;;4991240;28;20105;-62
2022/05/04 05:32:51;;;;;;;0.75;0.70;;;13.60;99.90;;;;;;4991338;28;20041;-62
2022/05/04 05:35:17;;;;;;;0.35;0.35;;;13.70;99.90;;;;;;4974453;28;20034;-62
2022/05/04 05:37:43;;;;;;;1.77;0.80;;;13.60;99.90;;;;;;4991559;28;20030;-62
2022/05/04 05:40:10;;;;;;;0.13;0.13;;;13.70;99.90;;;;;;4973865;28;20037;-62
2022/05/04 05:42:35;;;;;;;0.00;0.00;;;13.80;99.90;;;;;;4988162;28;20450;-63
2022/05/04 05:45:02;;;;;;;29.70;2.95;;;13.80;99.90;;;;;;4982552;28;20073;-63
2022/05/04 05:47:28;;;;;;;0.10;0.10;;;13.70;99.90;;;;;;4991797;28;20030;-63
2022/05/04 05:49:53;;;;;;;0.10;0.10;;;13.60;99.90;;;;;;4973565;28;20125;-63
2022/05/04 05:52:19;;;;;;;0.00;0.00;;;13.60;99.90;;;;;;4991463;28;20460;-62
2022/05/04 05:54:45;;;;;;;0.63;0.30;;;13.60;99.90;;;;;;4991687;28;20038;-62
2022/05/04 05:57:11;;;;;;;1.15;1.10;;;13.50;99.90;;;;;;4991278;28;20038;-62
2022/05/04 05:59:37;;;;;;;0.55;0.55;;;13.50;99.90;;;;;;4977195;28;20120;-62
2022/05/04 06:02:03;;;;;;;3.83;0.47;;;13.50;99.90;;;;;;4969742;28;20027;-62
2022/05/04 06:04:28;;;;;;;0.38;0.38;;;13.50;99.90;;;;;;4991102;28;20668;-62
2022/05/04 06:06:54;;;;;;;2.55;1.55;;;13.60;99.90;;;;;;4974198;28;20121;-62
2022/05/04 06:09:20;;;;;;;0.00;0.00;;;13.60;99.90;;;;;;4991100;28;20118;-63
2022/05/04 06:11:46;;;;;;;1.48;0.80;;;13.70;99.90;;;;;;4991489;28;20030;-63
2022/05/04 06:14:11;;;;;;;0.10;0.10;;;13.80;99.90;;;;;;4991401;28;20107;-63
2022/05/04 06:16:37;;;;;;;0.00;0.00;;;13.70;99.90;;;;;;4991084;28;20038;-63
2022/05/04 06:19:04;;;;;;;0.20;0.20;;;13.80;99.90;;;;;;4990660;28;20045;-63
2022/05/04 06:21:30;;;;;;;0.38;0.38;;;13.90;99.90;;;;;;4991157;28;20022;-63
2022/05/04 06:23:56;;;;;;;0.00;0.00;;;13.90;99.90;;;;;;4973363;28;20073;-64
2022/05/04 06:26:23;;;;;;;0.00;0.00;;;13.90;99.90;;;;;;4990071;28;20085;-63
2022/05/04 06:28:49;;;;;;;0.00;0.00;;;13.90;99.90;;;;;;4990898;28;20387;-63
2022/05/04 06:34:12;;;;;;;0.90;0.90;;;14.00;99.90;;;;;;4991154;28;20319;-62
2022/05/04 06:36:40;;;;;;;0.30;0.20;;;14.10;99.90;;;;;;4991144;28;20030;-63
2022/05/04 06:39:10;;;;;;;0.22;0.22;;;14.00;99.90;;;;;;4973192;28;20035;-62
2022/05/04 06:41:38;;;;;;;0.00;0.00;;;14.10;99.90;;;;;;4990753;28;20034;-63
2022/05/04 06:44:04;;;;;;;0.20;0.20;;;14.20;99.90;;;;;;4991060;28;20114;-63
2022/05/04 06:46:31;;;;;;;0.10;0.10;;;14.00;99.90;;;;;;4990582;28;20022;-63
2022/05/04 06:48:56;;;;;;;0.00;0.00;;;14.20;99.90;;;;;;4973127;28;20114;-63
2022/05/04 06:51:22;;;;;;;0.22;0.22;;;14.30;99.90;;;;;;4990496;28;20113;-63
2022/05/04 06:53:49;;;;;;;0.50;0.50;;;14.40;99.90;;;;;;4990832;28;20113;-63
2022/05/04 06:56:14;;;;;;;0.20;0.20;;;14.40;99.90;;;;;;4990501;28;20076;-63
2022/05/04 06:58:40;;;;;;;0.00;0.00;;;14.50;99.90;;;;;;4990292;28;20038;-63
2022/05/04 07:01:07;;;;;;;0.10;0.10;;;14.50;99.90;;;;;;4990968;28;20032;-63
2022/05/04 07:03:33;;;;;;;0.10;0.10;;;14.60;99.90;;;;;;4990810;28;20023;-63
2022/05/04 07:05:58;;;;;;;0.52;0.50;;;14.60;99.90;;;;;;4990974;28;20525;-63
2022/05/04 07:08:25;;;;;;;0.40;0.40;;;14.70;99.90;;;;;;4990527;28;20590;-63
2022/05/04 07:10:51;;;;;;;0.10;0.10;;;14.70;99.90;;;;;;4990386;28;20038;-64
2022/05/04 07:13:17;;;;;;;2.65;1.08;;;14.70;99.90;;;;;;4990793;28;20497;-63
2022/05/04 07:15:43;;;;;;;0.35;0.35;;;14.80;99.90;;;;;;4993403;28;20034;-64
2022/05/04 07:18:09;;;;;;;0.47;0.47;;;14.70;99.90;;;;;;4977102;28;20104;-63
2022/05/04 07:20:35;;;;;;;0.13;0.13;;;14.80;99.90;;;;;;4994765;28;20478;-64
2022/05/04 07:23:01;;;;;;;0.45;0.45;;;14.70;99.90;;;;;;4993357;28;20042;-63
2022/05/04 07:25:27;;;;;;;0.13;0.13;;;15.00;99.90;;;;;;4960574;28;20104;-64
2022/05/04 07:27:53;;;;;;;0.10;0.10;;;15.20;99.90;;;;;;4977207;28;20441;-63
2022/05/04 07:30:18;;;;;;;0.38;0.38;;;15.20;99.90;;;;;;4994331;28;20026;-63
2022/05/04 07:32:44;;;;;;;0.30;0.30;;;15.20;99.90;;;;;;4994473;28;20030;-63
2022/05/04 07:35:10;;;;;;;2.00;1.20;;;15.10;99.90;;;;;;4994450;28;20027;-63
2022/05/04 07:37:36;;;;;;;0.08;0.08;;;15.30;99.90;;;;;;4994328;28;20029;-63
2022/05/04 07:42:47;;;;;;;0.08;0.08;;;15.30;99.90;;;;;;4976558;28;20101;-63
2022/05/04 07:45:15;;;;;;;1.40;1.30;;;15.30;99.90;;;;;;4977026;28;20554;-62
2022/05/04 07:47:40;;;;;;;0.88;0.55;;;15.30;99.90;;;;;;4993964;28;20375;-63
2022/05/04 07:50:09;;;;;;;0.10;0.10;;;15.50;99.90;;;;;;4975948;28;20029;-62
2022/05/04 07:52:35;;;;;;;0.17;0.13;;;15.50;99.90;;;;;;4995383;28;20028;-61
2022/05/04 07:55:05;;;;;;;0.10;0.10;;;15.60;99.90;;;;;;4995287;28;20409;-62
2022/05/04 07:57:31;;;;;;;0.00;0.00;;;15.70;99.90;;;;;;4993514;28;20033;-62
2022/05/04 08:05:32;;;;;;;;;;;16.30;99.90;;;;;;4987722;28;20088;-62
2022/05/04 08:07:59;;;;;;;0.52;0.52;;;15.80;99.90;;;;;;5013506;28;20424;-62
2022/05/04 08:10:25;;;;;;;0.43;0.43;;;16.10;99.90;;;;;;5004035;28;20026;-62
2022/05/04 08:12:52;;;;;;;0.20;0.20;;;16.30;99.90;;;;;;5012948;28;20061;-62
2022/05/04 08:15:18;;;;;;;0.10;0.10;;;16.40;99.90;;;;;;4987359;28;20045;-62
2022/05/04 08:17:44;;;;;;;0.20;0.20;;;16.60;99.90;;;;;;4994824;28;20033;-64
2022/05/04 08:20:11;;;;;;;0.28;0.28;;;16.40;99.90;;;;;;4991436;23;20069;-62
2022/05/04 08:22:37;;;;;;;0.20;0.15;;;16.60;99.90;;;;;;4973689;28;20173;-62
2022/05/04 08:25:03;;;;;;;0.57;0.50;;;17.00;99.90;;;;;;4978573;28;20480;-62
2022/05/04 08:27:31;;;;;;;0.50;0.50;;;17.20;99.90;;;;;;4976286;28;20025;-62
2022/05/04 08:29:58;;;;;;;0.25;0.20;;;17.10;99.90;;;;;;4977787;28;20037;-62
2022/05/04 08:32:30;;;;;;;2.92;0.50;;;17.40;99.90;;;;;;4976221;28;20066;-62
2022/05/04 08:34:59;;;;;;;1.48;1.38;;;17.60;99.90;;;;;;4976192;28;20508;-62
2022/05/04 08:37:29;;;;;;;1.17;0.75;;;17.20;99.90;;;;;;4976487;28;20034;-61
2022/05/04 08:39:57;;;;;;;0.10;0.10;;;16.90;99.90;;;;;;4972910;28;20516;-62
2022/05/04 08:42:24;;;;;;;0.35;0.35;;;17.00;99.90;;;;;;4973281;28;20103;-62
2022/05/04 08:44:57;;;;;;;0.82;0.82;;;16.80;99.90;;;;;;4973843;28;20031;-62
2022/05/04 08:47:30;;;;;;;1.17;0.57;;;16.90;99.90;;;;;;4971985;28;20142;-62
2022/05/04 08:49:56;;;;;;;1.75;1.27;;;17.00;99.90;;;;;;4971659;28;20109;-62
2022/05/04 08:52:22;;;;;;;1.40;1.30;;;17.60;99.90;;;;;;4972260;28;20118;-62
2022/05/04 08:54:49;;;;;;;0.30;0.30;;;17.70;99.90;;;;;;4973281;28;20038;-63
2022/05/04 08:57:15;;;;;;;0.17;0.17;;;17.30;99.90;;;;;;4972377;28;20023;-63
2022/05/04 08:59:43;;;;;;;0.10;0.10;;;17.70;99.90;;;;;;4972660;28;20077;-62
2022/05/04 09:02:10;;;;;;;0.63;0.63;;;17.90;99.90;;;;;;4973556;28;20023;-62
2022/05/04 09:04:41;;;;;;;0.20;0.20;;;18.30;99.90;;;;;;4955826;28;20098;-62
2022/05/04 09:07:21;;;;;;;;;;;18.50;99.90;;;;;;4956080;28;20386;-62
2022/05/04 09:09:47;;;;;;;13.67;1.17;;;18.60;99.90;;;;;;4956101;28;19910;-62
2022/05/04 09:12:16;;;;;;;0.57;0.57;;;18.10;99.90;;;;;;4972894;28;20038;-62
2022/05/04 09:14:44;;;;;;;0.17;0.17;;;18.20;99.90;;;;;;4955702;28;20027;-62
2022/05/04 09:17:16;;;;;;;0.90;0.88;;;18.30;99.90;;;;;;4955758;28;20038;-62
2022/05/04 09:22:41;;;;;;;0.47;0.35;;;18.50;99.90;;;;;;4972397;28;20182;-62
2022/05/04 09:25:16;;;;;;;0.32;0.32;;;18.90;99.90;;;;;;4972817;28;20102;-62
2022/05/04 09:27:42;;;;;;;0.10;0.10;;;18.90;99.90;;;;;;4955583;28;20053;-62
2022/05/04 09:30:08;;;;;;;0.45;0.38;;;19.20;99.90;;;;;;4972416;28;20495;-62
2022/05/04 09:32:40;;;;;;;0.43;0.43;;;19.40;99.90;;;;;;4972354;28;20380;-62
2022/05/04 09:35:16;;;;;;;0.10;0.10;;;19.40;99.90;;;;;;4955398;28;20329;-62
2022/05/04 09:46:03;;;;;;;0.68;0.55;;;19.40;99.80;;;;;;4957794;28;20430;-63
2022/05/04 09:48:32;;;;;;;0.40;0.40;;;19.70;99.90;;;;;;4971801;28;20027;-62
2022/05/04 09:51:06;;;;;;;0.15;0.15;;;19.70;99.90;;;;;;4971190;28;20163;-63
2022/05/04 09:53:33;;;;;;;0.90;0.82;;;20.30;99.00;;;;;;4971228;28;20085;-64
2022/05/04 09:56:01;;;;;;;0.40;0.35;;;20.70;97.20;;;;;;4972426;28;20019;-62
2022/05/04 09:58:28;;;;;;;0.35;0.30;;;20.70;95.60;;;;;;4970317;28;20177;-62
2022/05/04 10:00:55;;;;;;;0.00;0.00;;;20.80;94.90;;;;;;4972102;28;20041;-62
2022/05/04 10:03:22;;;;;;;0.00;0.00;;;20.20;95.50;;;;;;4972019;28;20480;-62
2022/05/04 10:05:49;;;;;;;0.10;0.10;;;20.40;94.70;;;;;;4972339;28;20023;-62
2022/05/04 10:08:16;;;;;;;0.35;0.35;;;20.40;94.80;;;;;;4954862;28;20053;-63
2022/05/04 10:10:43;;;;;;;1.25;0.73;;;20.30;94.70;;;;;;4954284;28;20031;-62
2022/05/04 10:13:09;;;;;;;0.57;0.40;;;20.20;94.90;;;;;;4971677;28;20121;-62
2022/05/04 10:15:38;;;;;;;0.22;0.22;;;20.30;94.60;;;;;;4954443;28;20042;-62
2022/05/04 10:18:14;;;;;;;3.88;1.33;;;20.50;95.00;;;;;;4971908;28;20122;-63
2022/05/04 10:20:55;;;;;;;0.55;0.55;;;20.10;94.60;;;;;;4954182;28;20038;-63
2022/05/04 10:23:34;;;;;;;0.65;0.50;;;20.30;94.30;;;;;;4954550;28;20034;-63
2022/05/04 10:26:00;;;;;;;2.00;0.52;;;20.10;94.60;;;;;;4955192;28;20054;-63
2022/05/04 10:28:26;;;;;;;1.02;0.28;;;19.80;94.80;;;;;;4977708;28;20030;-63
2022/05/04 10:30:55;;;;;;;0.70;0.70;;;20.10;94.50;;;;;;4973675;28;20112;-62
2022/05/04 10:33:32;;;;;;;0.28;0.28;;;20.00;94.60;;;;;;4991154;28;20034;-62
2022/05/04 10:36:26;;;;;;;0.20;0.20;;;20.20;94.50;;;;;;4989775;28;20026;-62
2022/05/04 10:38:57;;;;;;;0.20;0.20;;;20.40;94.50;;;;;;4990711;28;20061;-63
2022/05/04 10:41:37;;;;;;;0.30;0.28;;;20.60;93.80;;;;;;4989905;28;20030;-63
2022/05/04 10:44:08;;;;;;;1.02;0.98;;;20.70;93.40;;;;;;4990759;28;20034;-64
2022/05/04 10:46:39;;;;;;;0.43;0.43;;;20.40;94.00;;;;;;4989682;28;20030;-62
2022/05/04 10:49:08;;;;;;;0.47;0.47;;;20.70;93.90;;;;;;4972953;28;20095;-62
2022/05/04 10:51:44;;;;;;;13.25;1.05;;;20.80;93.90;;;;;;4989386;28;20297;-62
2022/05/04 10:54:19;;;;;;;0.68;0.57;;;21.00;93.30;;;;;;4990777;28;20060;-62
2022/05/04 10:56:52;;;;;;;0.30;0.22;;;21.10;92.90;;;;;;4990766;28;20065;-62
2022/05/04 10:59:35;;;;;;;4.45;1.25;;;21.30;92.20;;;;;;4989347;28;20026;-63
2022/05/04 11:02:05;;;;;;;0.68;0.65;;;21.50;92.20;;;;;;4973099;28;20018;-63
2022/05/04 11:04:33;;;;;;;0.55;0.52;;;21.30;92.00;;;;;;4990953;28;20039;-63
2022/05/04 11:06:59;;;;;;;0.80;0.70;;;21.10;92.80;;;;;;4989258;28;20414;-63
2022/05/04 11:09:32;;;;;;;2.25;0.68;;;21.00;92.00;;;;;;4990572;28;20093;-62
2022/05/04 11:12:04;;;;;;;1.25;0.80;;;21.20;92.40;;;;;;4989276;28;20027;-62
2022/05/04 11:14:34;;;;;;;0.20;0.20;;;21.00;92.60;;;;;;4990670;28;20038;-63
2022/05/04 11:17:01;;;;;;;0.77;0.77;;;21.30;92.30;;;;;;4990644;28;20038;-64
2022/05/04 11:19:32;;;;;;;0.55;0.55;;;21.50;91.90;;;;;;4988791;28;20039;-63
2022/05/04 11:21:59;;;;;;;0.52;0.52;;;21.70;92.30;;;;;;4989388;28;20034;-62
2022/05/04 11:24:27;;;;;;;0.52;0.52;;;21.40;92.20;;;;;;4989082;28;20143;-63
2022/05/04 11:26:54;;;;;;;3.83;1.17;;;21.90;92.20;;;;;;4989564;28;20022;-63
2022/05/04 11:29:30;;;;;;;0.28;0.28;;;22.20;91.60;;;;;;4972445;28;20478;-63
2022/05/04 11:32:03;;;;;;;1.30;0.93;;;22.80;91.10;;;;;;4989441;28;20026;-63
2022/05/04 11:34:36;;;;;;;2.85;0.57;;;23.00;90.50;;;;;;4988996;28;20038;-63
2022/05/04 11:37:10;;;;;;;3.88;1.27;;;23.00;89.80;;;;;;4990348;28;20486;-62
2022/05/04 11:39:38;;;;;;;0.70;0.70;;;22.60;90.00;;;;;;4988876;28;20430;-63
2022/05/04 11:42:09;;;;;;;0.40;0.40;;;22.30;90.40;;;;;;4962920;28;20130;-62
2022/05/04 11:44:35;;;;;;;;;;;22.60;89.70;;;;;;4952563;29;20104;-63
2022/05/04 11:47:02;;;;;;;0.10;0.10;;;23.00;88.70;;;;;;4950795;29;19917;-63
2022/05/04 11:49:34;;;;;;;1.05;0.95;;;23.10;88.10;;;;;;4934044;29;20019;-62
2022/05/04 11:52:01;;;;;;;0.30;0.30;;;22.70;89.20;;;;;;4946209;28;20512;-62
2022/05/04 11:54:26;;;;;;;0.30;0.30;;;23.10;89.30;;;;;;4953780;28;20050;-63
2022/05/04 11:56:53;;;;;;;0.20;0.20;;;23.00;88.70;;;;;;4970753;28;20446;-62
2022/05/04 11:59:20;;;;;;;1.85;0.55;;;23.40;87.50;;;;;;4983656;28;20031;-63
2022/05/04 12:01:46;;;;;;;0.20;0.20;;;23.10;87.30;;;;;;4974829;28;20114;-63
2022/05/04 12:04:13;;;;;;;0.65;0.60;;;22.80;86.60;;;;;;4993563;28;20109;-63
2022/05/04 12:06:42;;;;;;;2.03;1.85;;;23.20;86.50;;;;;;4994107;28;20037;-62
2022/05/04 12:09:09;;;;;;;0.38;0.38;;;23.10;86.30;;;;;;4992106;28;20066;-62
2022/05/04 12:11:36;;;;;;;1.05;0.98;;;23.00;87.80;;;;;;4992750;28;20405;-62
2022/05/04 12:14:02;;;;;;;0.40;0.40;;;23.50;86.90;;;;;;4992406;28;20301;-61
2022/05/04 12:16:28;;;;;;;1.45;0.93;;;22.90;86.80;;;;;;4992360;28;20482;-63
2022/05/04 12:18:54;;;;;;;0.40;0.30;;;23.70;87.10;;;;;;4991759;28;20093;-62
2022/05/04 12:21:21;;;;;;;0.63;0.63;;;23.00;84.70;;;;;;4992110;28;20092;-63
2022/05/04 12:23:50;;;;;;;1.13;0.22;;;23.00;85.70;;;;;;4975801;28;20030;-64
2022/05/04 12:26:17;;;;;;;1.50;0.85;;;23.00;84.00;;;;;;4993269;28;20110;-62
2022/05/04 12:33:08;;;;;;;0.20;0.20;;;23.20;86.90;;;;;;4991556;28;20030;-62
2022/05/04 12:34:22;;;;;;;0.93;0.68;;;24.40;81.90;;;;;;4992310;28;20030;-62
2022/05/04 12:36:49;;;;;;;0.52;0.47;;;24.20;82.30;;;;;;4992077;28;20031;-63
2022/05/04 12:39:15;;;;;;;0.43;0.43;;;23.40;81.20;;;;;;4975193;28;20522;-63
2022/05/04 12:41:44;;;;;;;4.43;0.85;;;24.70;79.90;;;;;;4993117;28;20060;-62
2022/05/04 12:44:10;;;;;;;18.80;2.33;;;25.20;76.80;;;;;;4992994;28;20557;-62
2022/05/04 12:46:37;;;;;;;0.65;0.43;;;24.40;77.30;;;;;;4992907;28;20041;-63
2022/05/04 12:49:03;;;;;;;0.75;0.50;;;24.20;79.40;;;;;;4991130;28;20642;-62
2022/05/04 12:51:29;;;;;;;0.25;0.25;;;24.30;77.70;;;;;;4991943;28;20053;-63
2022/05/04 12:53:56;;;;;;;0.52;0.40;;;24.30;77.50;;;;;;4991543;28;20030;-63
2022/05/04 12:59:06;;;;;;;0.03;0.03;;;25.60;75.20;;;;;;4991744;28;20035;-63
2022/05/04 13:01:32;;;;;;;0.00;0.00;;;25.70;72.80;;;;;;4991526;28;20545;-63
2022/05/04 13:04:02;;;;;;;0.13;0.13;;;25.90;71.60;;;;;;4992517;28;20090;-63
2022/05/04 13:06:27;;;;;;;1.75;1.17;;;25.20;72.90;;;;;;4992924;28;20054;-63
2022/05/04 13:08:55;;;;;;;0.25;0.25;;;25.50;72.60;;;;;;4992123;28;20072;-63
2022/05/04 13:11:24;;;;;;;0.20;0.20;;;26.00;70.60;;;;;;4992398;28;20104;-63
2022/05/04 13:13:50;;;;;;;0.43;0.38;;;25.90;69.40;;;;;;4990133;28;20486;-63
2022/05/04 13:16:15;;;;;;;0.10;0.10;;;26.60;70.10;;;;;;4992375;28;20042;-63
2022/05/04 13:18:42;;;;;;;0.00;0.00;;;25.50;72.00;;;;;;4992045;28;20062;-63
2022/05/04 13:21:08;;;;;;;0.35;0.32;;;26.30;69.80;;;;;;4991354;28;20041;-64
2022/05/04 13:23:34;;;;;;;0.57;0.40;;;26.90;70.00;;;;;;4992343;28;20038;-63
2022/05/04 13:26:00;;;;;;;0.28;0.28;;;27.50;65.40;;;;;;4991145;28;20502;-63
2022/05/04 13:28:28;;;;;;;0.08;0.08;;;27.20;65.50;;;;;;4990784;28;20041;-63
2022/05/04 13:30:55;;;;;;;0.63;0.63;;;27.70;64.40;;;;;;4990701;28;20030;-63